Dades meteomassalio
Diari Summary for Octubre 14, 2017 Units:  Metric    English   Both
« Previous Day
Next Day »
Diari Semanal Mensual Anual Personalitzat
  Maxima: Minima: Mijana:
Temperatura: -17.8 °C -13.2 °C -8.8 °C
Rosada: -17.8 °C -13.9 °C -10.9 °C
Humitat: Humidity % 54 % 79 %
Velocitat del vent: 0 km/h 0 km/h 8.5 km/h
Racha vent: 0 km/h - -
Vent:- - SE
Pressio: 0 hPa 34726.8 hPa -
Pluja: 0 mm    
Historical Graphs
 
 
Tabular Data for Octubre 14, 2017
Time Temperature Dew Point Pressure Wind Wind Speed Wind Gust Humidity Rainfall Rate (Hourly) solar Conditions
-17.8 °C -17.8 °C 0 hPa Calm     Humidity % 0 mm SolarRadiationWatts/m^2 W/m2 Conditions
00:03 -10.7 °C -12.1 °C 34774.2 hPa Calm     84 % 0 mm 0.0 W/m2 CLR
00:08 -10.7 °C -12.1 °C 34774.2 hPa Calm     84 % 0 mm 0.0 W/m2 CLR
00:09 -10.7 °C -12.1 °C 34774.2 hPa Calm     84 % 0 mm 0.0 W/m2 CLR
00:14 -10.7 °C -12.1 °C 34774.2 hPa Calm     84 % 0 mm 0.0 W/m2 CLR
00:19 -10.7 °C -12.1 °C 34774.2 hPa Calm     85 % 0 mm 0.0 W/m2 CLR
00:24 -10.7 °C -12.1 °C 34774.2 hPa Calm     84 % 0 mm 0.0 W/m2 CLR
00:29 -10.7 °C -12.1 °C 34774.2 hPa Calm     85 % 0 mm 0.0 W/m2 CLR
00:34 -10.7 °C -12.1 °C 34774.2 hPa Calm     85 % 0 mm 0.0 W/m2 CLR
00:39 -10.7 °C -12.1 °C 34774.2 hPa Calm     85 % 0 mm 0.0 W/m2 CLR
00:44 -10.7 °C -12.1 °C 34774.2 hPa Calm     85 % 0 mm 0.0 W/m2 CLR
00:49 -11 °C -12.3 °C 34774.2 hPa Calm     85 % 0 mm 0.0 W/m2 CLR
00:54 -11 °C -12.3 °C 34774.2 hPa Calm     85 % 0 mm 0.0 W/m2 CLR
00:59 -11 °C -12.3 °C 34774.2 hPa Calm     85 % 0 mm 0.0 W/m2 CLR
01:04 -11 °C -12.3 °C 34774.2 hPa Calm     85 % 0 mm 0.0 W/m2 CLR
01:09 -11 °C -12.3 °C 34774.2 hPa Calm     85 % 0 mm 0.0 W/m2 CLR
01:14 -11.3 °C -12.7 °C 34774.2 hPa Calm     85 % 0 mm 0.0 W/m2 CLR
01:19 -11.3 °C -12.7 °C 34784.4 hPa Calm     85 % 0 mm 0.0 W/m2 CLR
01:24 -11.3 °C -12.6 °C 34784.4 hPa Calm     86 % 0 mm 0.0 W/m2 CLR
01:29 -11.3 °C -12.6 °C 34784.4 hPa Calm     86 % 0 mm 0.0 W/m2 CLR
01:34 -11.3 °C -12.6 °C 34784.4 hPa Calm     86 % 0 mm 0.0 W/m2 CLR
01:39 -11.3 °C -12.6 °C 34784.4 hPa Calm     86 % 0 mm 0.0 W/m2 CLR
01:44 -11.6 °C -12.7 °C 34784.4 hPa Calm     87 % 0 mm 0.0 W/m2 CLR
01:49 -11.6 °C -12.7 °C 34784.4 hPa Calm     87 % 0 mm 0.0 W/m2 CLR
01:54 -11.6 °C -12.9 °C 34784.4 hPa Calm     86 % 0 mm 0.0 W/m2 CLR
01:59 -11.6 °C -12.9 °C 34784.4 hPa Calm     86 % 0 mm 0.0 W/m2 CLR
02:04 -11.3 °C -12.4 °C 34784.4 hPa Calm     87 % 0 mm 0.0 W/m2 CLR
02:09 -11 °C -12.2 °C 34784.4 hPa Calm     87 % 0 mm 0.0 W/m2 CLR
02:14 -11.3 °C -12.4 °C 34784.4 hPa Calm     87 % 0 mm 0.0 W/m2 CLR
02:19 -11.3 °C -12.4 °C 34784.4 hPa Calm     87 % 0 mm 0.0 W/m2 CLR
02:24 -11.3 °C -12.4 °C 34784.4 hPa Calm     87 % 0 mm 0.0 W/m2 CLR
02:29 -11.6 °C -12.7 °C 34784.4 hPa Calm     87 % 0 mm 0.0 W/m2 CLR
02:34 -11.6 °C -12.7 °C 34784.4 hPa Calm     87 % 0 mm 0.0 W/m2 CLR
02:39 -11.6 °C -12.7 °C 34784.4 hPa Calm     87 % 0 mm 0.0 W/m2 CLR
02:44 -11.6 °C -12.7 °C 34784.4 hPa Calm     87 % 0 mm 0.0 W/m2 CLR
02:49 -11.6 °C -12.7 °C 34784.4 hPa Calm     87 % 0 mm 0.0 W/m2 CLR
02:54 -11.6 °C -12.7 °C 34784.4 hPa Calm     88 % 0 mm 0.0 W/m2 CLR
02:59 -11.9 °C -12.9 °C 34784.4 hPa Calm     89 % 0 mm 0.0 W/m2 CLR
03:04 -11.9 °C -12.9 °C 34784.4 hPa Calm     89 % 0 mm 0.0 W/m2 CLR
03:09 -11.9 °C -12.9 °C 34784.4 hPa Calm     88 % 0 mm 0.0 W/m2 CLR
03:14 -11.9 °C -12.9 °C 34774.2 hPa Calm     88 % 0 mm 0.0 W/m2 CLR
03:19 -11.9 °C -12.9 °C 34774.2 hPa Calm     89 % 0 mm 0.0 W/m2 CLR
03:24 -11.9 °C -12.9 °C 34784.4 hPa Calm     88 % 0 mm 0.0 W/m2 CLR
03:29 -11.9 °C -12.9 °C 34774.2 hPa Calm     88 % 0 mm 0.0 W/m2 CLR
03:34 -11.9 °C -12.9 °C 34774.2 hPa Calm     88 % 0 mm 0.0 W/m2 CLR
03:39 -11.9 °C -12.9 °C 34774.2 hPa Calm     88 % 0 mm 0.0 W/m2 CLR
03:44 -11.9 °C -12.9 °C 34774.2 hPa Calm     89 % 0 mm 0.0 W/m2 CLR
03:49 -12.2 °C -13.2 °C 34774.2 hPa Calm     89 % 0 mm 0.0 W/m2 CLR
03:54 -12.2 °C -13.2 °C 34774.2 hPa Calm     89 % 0 mm 0.0 W/m2 CLR
03:59 -12.2 °C -13.2 °C 34774.2 hPa Calm     89 % 0 mm 0.0 W/m2 CLR
04:04 -12.2 °C -13.2 °C 34774.2 hPa Calm     89 % 0 mm 0.0 W/m2 CLR
04:09 -12.2 °C -13.1 °C 34774.2 hPa Calm     90 % 0 mm 0.0 W/m2 CLR
04:14 -12.2 °C -13.1 °C 34774.2 hPa Calm     90 % 0 mm 0.0 W/m2 CLR
04:19 -12.2 °C -13.1 °C 34774.2 hPa Calm     90 % 0 mm 0.0 W/m2 CLR
04:24 -12.2 °C -13.1 °C 34774.2 hPa Calm     90 % 0 mm 0.0 W/m2 CLR
04:29 -12.2 °C -13.1 °C 34774.2 hPa Calm     90 % 0 mm 0.0 W/m2 CLR
04:34 -12.2 °C -13.1 °C 34774.2 hPa Calm     90 % 0 mm 0.0 W/m2 CLR
04:39 -12.2 °C -13.1 °C 34774.2 hPa Calm     90 % 0 mm 0.0 W/m2 CLR
04:44 -11.9 °C -12.8 °C 34774.2 hPa Calm     90 % 0 mm 0.0 W/m2 CLR
04:49 -11.6 °C -12.4 °C 34774.2 hPa Calm     90 % 0 mm 0.0 W/m2 CLR
04:54 -11.9 °C -12.8 °C 34774.2 hPa Calm     90 % 0 mm 0.0 W/m2 CLR
04:59 -11.9 °C -12.8 °C 34774.2 hPa Calm     90 % 0 mm 0.0 W/m2 CLR
05:04 -11.9 °C -12.7 °C 34774.2 hPa Calm     91 % 0 mm 0.0 W/m2 CLR
05:09 -11.9 °C -12.7 °C 34774.2 hPa Calm     91 % 0 mm 0.0 W/m2 CLR
05:15 -11.9 °C -12.7 °C 34774.2 hPa Calm     91 % 0 mm 0.0 W/m2 CLR
05:20 -11.9 °C -12.7 °C 34774.2 hPa Calm     91 % 0 mm 0.0 W/m2 CLR
05:23 -11.9 °C -12.7 °C 34774.2 hPa Calm     91 % 0 mm 0.0 W/m2 CLR
05:28 -12.2 °C -13 °C 34774.2 hPa Calm     91 % 0 mm 0.0 W/m2 CLR
05:33 -12.2 °C -13.1 °C 34774.2 hPa Calm     90 % 0 mm 0.0 W/m2 CLR
05:38 -12.2 °C -13.1 °C 34774.2 hPa Calm     90 % 0 mm 0.0 W/m2 CLR
05:43 -12.2 °C -13 °C 34774.2 hPa Calm     91 % 0 mm 0.0 W/m2 CLR
05:48 -12.6 °C -13.3 °C 34774.2 hPa Calm     91 % 0 mm 0.0 W/m2 CLR
05:53 -12.6 °C -13.3 °C 34774.2 hPa Calm     91 % 0 mm 0.0 W/m2 CLR
05:58 -12.6 °C -13.3 °C 34774.2 hPa Calm     91 % 0 mm 0.0 W/m2 CLR
06:03 -12.6 °C -13.3 °C 34774.2 hPa Calm     91 % 0 mm 0.0 W/m2 CLR
06:08 -12.6 °C -13.3 °C 34774.2 hPa Calm     91 % 0 mm 0.0 W/m2 CLR
06:13 -12.6 °C -13.3 °C 34774.2 hPa Calm     91 % 0 mm 0.0 W/m2 CLR
06:18 -12.6 °C -13.3 °C 34784.4 hPa Calm     91 % 0 mm 0.0 W/m2 CLR
06:23 -12.6 °C -13.3 °C 34784.4 hPa Calm     91 % 0 mm 0.0 W/m2 CLR
06:28 -12.6 °C -13.3 °C 34784.4 hPa Calm     91 % 0 mm 0.0 W/m2 CLR
06:33 -12.6 °C -13.3 °C 34784.4 hPa Calm     91 % 0 mm 0.0 W/m2 CLR
06:38 -12.6 °C -13.3 °C 34784.4 hPa Calm     91 % 0 mm 0.0 W/m2 CLR
06:43 -12.8 °C -13.7 °C 34784.4 hPa Calm     90 % 0 mm 0.0 W/m2 CLR
06:48 -12.8 °C -13.6 °C 34784.4 hPa Calm     91 % 0 mm 0.0 W/m2 CLR
06:53 -12.8 °C -13.6 °C 34784.4 hPa Calm     91 % 0 mm 0.0 W/m2 CLR
06:58 -12.8 °C -13.6 °C 34784.4 hPa Calm     91 % 0 mm 0.0 W/m2 CLR
07:03 -12.8 °C -13.5 °C 34784.4 hPa Calm     92 % 0 mm 0.0 W/m2 CLR
07:08 -12.8 °C -13.6 °C 34784.4 hPa Calm     91 % 0 mm 0.0 W/m2 CLR
07:13 -12.8 °C -13.6 °C 34797.9 hPa Calm     91 % 0 mm 0.0 W/m2 CLR
07:18 -12.8 °C -13.6 °C 34784.4 hPa Calm     91 % 0 mm 0.0 W/m2 CLR
07:23 -12.8 °C -13.6 °C 34797.9 hPa Calm     91 % 0 mm 0.0 W/m2 CLR
07:28 -12.8 °C -13.6 °C 34797.9 hPa Calm     91 % 0 mm 0.0 W/m2 CLR
07:33 -12.8 °C -13.6 °C 34797.9 hPa Calm     91 % 0 mm 0.0 W/m2 CLR
07:38 -12.8 °C -13.6 °C 34797.9 hPa Calm     91 % 0 mm 0.0 W/m2 CLR
07:43 -12.8 °C -13.6 °C 34797.9 hPa Calm     91 % 0 mm 0.0 W/m2 CLR
07:48 -12.8 °C -13.6 °C 34797.9 hPa Calm     91 % 0 mm 0.0 W/m2 CLR
07:49 -12.8 °C -13.6 °C 34797.9 hPa Calm     91 % 0 mm 0.0 W/m2 CLR
07:54 -12.8 °C -13.6 °C 34797.9 hPa Calm     91 % 0 mm 0.0 W/m2 CLR
07:59 -12.8 °C -13.6 °C 34797.9 hPa Calm     91 % 0 mm 0.0 W/m2 CLR
08:04 -12.8 °C -13.6 °C 34797.9 hPa Calm     91 % 0 mm 0.0 W/m2 OVC
08:09 -13.2 °C -13.8 °C 34797.9 hPa Calm     92 % 0 mm 0.0 W/m2 OVC
08:14 -13.2 °C -13.8 °C 34797.9 hPa Calm     92 % 0 mm 5.0 W/m2 OVC
08:19 -13.2 °C -13.9 °C 34797.9 hPa Calm     91 % 0 mm 9.0 W/m2 BKN
08:25 -13.2 °C -13.8 °C 34797.9 hPa Calm     92 % 0 mm 11.0 W/m2 BKN
08:30 -12.8 °C -13.5 °C 34797.9 hPa Calm     92 % 0 mm 14.0 W/m2 BKN
08:35 -12.8 °C -13.5 °C 34797.9 hPa Calm     92 % 0 mm 18.0 W/m2 BKN
08:40 -12.8 °C -13.5 °C 34808.1 hPa Calm     92 % 0 mm 23.0 W/m2 BKN
08:45 -12.6 °C -13.2 °C 34808.1 hPa Calm     92 % 0 mm 26.0 W/m2 BKN
08:50 -12.2 °C -12.8 °C 34808.1 hPa Calm     93 % 0 mm 30.0 W/m2 BKN
08:55 -11.9 °C -12.6 °C 34808.1 hPa Calm     92 % 0 mm 39.0 W/m2 BKN
09:00 -11.9 °C -12.6 °C 34808.1 hPa Calm     93 % 0 mm 47.0 W/m2 SCT
09:05 -11.6 °C -12.2 °C 34808.1 hPa Calm     93 % 0 mm 56.0 W/m2 SCT
09:10 -11.6 °C -12.2 °C 34808.1 hPa Calm     93 % 0 mm 56.0 W/m2 SCT
09:15 -11.6 °C -12.2 °C 34808.1 hPa Calm     93 % 0 mm 70.0 W/m2 SCT
09:20 -11.6 °C -12.2 °C 34818.2 hPa Calm     93 % 0 mm 90.0 W/m2 FEW
09:25 -11.3 °C -11.9 °C 34818.2 hPa Calm     93 % 0 mm 95.0 W/m2 CLR
09:30 -11.3 °C -11.9 °C 34818.2 hPa Calm     93 % 0 mm 100.0 W/m2 CLR
09:35 -11.3 °C -11.9 °C 34818.2 hPa Calm     93 % 0 mm 125.0 W/m2 CLR
09:40 -11.3 °C -11.9 °C 34818.2 hPa Calm     93 % 0 mm 139.0 W/m2 CLR
09:45 -11 °C -11.6 °C 34818.2 hPa Calm     93 % 0 mm 167.0 W/m2 CLR
09:50 -11 °C -11.5 °C 34818.2 hPa Calm     94 % 0 mm 193.0 W/m2 CLR
09:55 -10.7 °C -11.3 °C 34818.2 hPa Calm     93 % 0 mm 195.0 W/m2 CLR
10:00 -10.7 °C -11.3 °C 34818.2 hPa Calm     93 % 0 mm 229.0 W/m2 CLR
10:05 -10.4 °C -10.9 °C 34818.2 hPa Calm     94 % 0 mm 250.0 W/m2 CLR
10:10 -10.4 °C -10.9 °C 34818.2 hPa Calm     94 % 0 mm 262.0 W/m2 CLR
10:15 -10.4 °C -10.9 °C 34818.2 hPa Calm     94 % 0 mm 278.0 W/m2 CLR
10:20 -10.1 °C -10.7 °C 34818.2 hPa Calm     93 % 0 mm 292.0 W/m2 CLR
10:25 -9.8 °C -10.4 °C 34831.8 hPa Calm     93 % 0 mm 309.0 W/m2 CLR
10:30 -9.4 °C -10.2 °C 34818.2 hPa Calm     92 % 0 mm 327.0 W/m2 CLR
10:35 -9.4 °C -10.2 °C 34831.8 hPa Calm     92 % 0 mm 338.0 W/m2 CLR
10:40 -9.4 °C -10.2 °C 34831.8 hPa Calm     91 % 0 mm 355.0 W/m2 CLR
10:45 -8.8 °C -9.8 °C 34831.8 hPa Calm     90 % 0 mm 366.0 W/m2 CLR
10:50 -8.8 °C -10.1 °C 34831.8 hPa Calm     87 % 0 mm 378.0 W/m2 CLR
10:55 -8.5 °C -9.8 °C 34831.8 hPa Calm     86 % 0 mm 392.0 W/m2 CLR
11:00 -8.5 °C -10.1 °C 34818.2 hPa Calm     83 % 0 mm 406.0 W/m2 CLR
11:06 -8.2 °C -9.9 °C 34831.8 hPa Calm     82 % 0 mm 420.0 W/m2 CLR
11:11 -8.2 °C -10.1 °C 34818.2 hPa Calm     81 % 0 mm 429.0 W/m2 CLR
11:15 -7.9 °C -9.7 °C 34818.2 hPa Calm     81 % 0 mm 443.0 W/m2 CLR
11:21 -7.6 °C -9.4 °C 34818.2 hPa Calm     81 % 0 mm 457.0 W/m2 CLR
11:25 -7.6 °C -9.7 °C 34818.2 hPa Calm     79 % 0 mm 468.0 W/m2 CLR
11:31 -7.6 °C -9.7 °C 34818.2 hPa Calm     79 % 0 mm 476.0 W/m2 CLR
11:36 -7.3 °C -9.5 °C 34818.2 hPa NW 3.1 km/h   78 % 0 mm 485.0 W/m2 CLR
11:41 -7 °C -9.3 °C 34818.2 hPa Calm     77 % 0 mm 496.0 W/m2 CLR
11:46 -7 °C -9.4 °C 34818.2 hPa Calm     76 % 0 mm 508.0 W/m2 CLR
11:51 -6.7 °C -9.1 °C 34818.2 hPa NNW 12.9 km/h 12.9 km/h 76 % 0 mm 517.0 W/m2 CLR
11:56 -6.7 °C -9.3 °C 34808.1 hPa NW 11.9 km/h 11.9 km/h 74 % 0 mm 526.0 W/m2 CLR
12:01 -6.3 °C -9 °C 34808.1 hPa NNW 11.9 km/h 11.9 km/h 74 % 0 mm 534.0 W/m2 CLR
12:06 -6.3 °C -9 °C 34808.1 hPa NW 11.9 km/h 11.9 km/h 74 % 0 mm 543.0 W/m2 CLR
12:11 -6.1 °C -8.8 °C 34808.1 hPa NNW 12.9 km/h 12.9 km/h 73 % 0 mm 552.0 W/m2 CLR
12:16 -6.1 °C -8.9 °C 34808.1 hPa NW 20.9 km/h 20.9 km/h 72 % 0 mm 559.0 W/m2 CLR
12:21 -6.1 °C -8.9 °C 34808.1 hPa NW 15.6 km/h 15.6 km/h 72 % 0 mm 563.0 W/m2 CLR
12:26 -5.7 °C -8.7 °C 34808.1 hPa NNW 11.9 km/h 11.9 km/h 72 % 0 mm 573.0 W/m2 CLR
12:31 -5.7 °C -8.7 °C 34808.1 hPa NNW 20.9 km/h 20.9 km/h 72 % 0 mm 577.0 W/m2 CLR
12:36 -5.4 °C -8.4 °C 34808.1 hPa NNW 20.9 km/h 20.9 km/h 72 % 0 mm 584.0 W/m2 CLR
12:41 -5.1 °C -8.2 °C 34797.9 hPa NW 11.9 km/h 11.9 km/h 71 % 0 mm 587.0 W/m2 CLR
12:46 -5.4 °C -8.5 °C 34797.9 hPa NNW 20.9 km/h 20.9 km/h 71 % 0 mm 594.0 W/m2 CLR
12:51 -5.1 °C -8.3 °C 34797.9 hPa NW 11.9 km/h 11.9 km/h 70 % 0 mm 599.0 W/m2 CLR
12:56 -4.8 °C -8.2 °C 34797.9 hPa NW 6 km/h 6 km/h 69 % 0 mm 603.0 W/m2 CLR
13:01 -4.8 °C -8.3 °C 34797.9 hPa NW 20.9 km/h 20.9 km/h 68 % 0 mm 610.0 W/m2 CLR
13:06 -4.8 °C -8.3 °C 34784.4 hPa NW 20.9 km/h 20.9 km/h 68 % 0 mm 608.0 W/m2 CLR
13:11 -4.5 °C -8.1 °C 34784.4 hPa WNW 11.9 km/h 11.9 km/h 67 % 0 mm 613.0 W/m2 CLR
13:16 -4.5 °C -8.1 °C 34784.4 hPa NW 15 km/h 15 km/h 67 % 0 mm 617.0 W/m2 CLR
13:21 -4.2 °C -7.9 °C 34784.4 hPa NNW 23.8 km/h 23.8 km/h 66 % 0 mm 621.0 W/m2 CLR
13:26 -4.2 °C -8.2 °C 34774.2 hPa NNE 9 km/h 9 km/h 64 % 0 mm 621.0 W/m2 CLR
13:31 -3.9 °C -8.1 °C 34774.2 hPa North 23.8 km/h 23.8 km/h 63 % 0 mm 622.0 W/m2 CLR
13:36 -4.2 °C -8.5 °C 34774.2 hPa NW 11.9 km/h 11.9 km/h 62 % 0 mm 622.0 W/m2 CLR
13:41 -4.2 °C -8.5 °C 34774.2 hPa NNW 20.9 km/h 20.9 km/h 62 % 0 mm 624.0 W/m2 CLR
13:46 -3.9 °C -8.4 °C 34774.2 hPa NNW 11.9 km/h 11.9 km/h 61 % 0 mm 626.0 W/m2 CLR
13:51 -3.6 °C -8.2 °C 34760.7 hPa NNW 23.8 km/h 23.8 km/h 60 % 0 mm 624.0 W/m2 CLR
13:56 -3.9 °C -8.7 °C 34760.7 hPa North 20.9 km/h 20.9 km/h 59 % 0 mm 624.0 W/m2 CLR
14:01 -3.6 °C -8.4 °C 34760.7 hPa WNW 9 km/h 9 km/h 59 % 0 mm 624.0 W/m2 CLR
14:06 -3.6 °C -8.5 °C 34760.7 hPa North 17.9 km/h 17.9 km/h 58 % 0 mm 622.0 W/m2 CLR
14:11 -3.6 °C -8.7 °C 34750.5 hPa NW 29.8 km/h 29.8 km/h 57 % 0 mm 621.0 W/m2 CLR
14:16 -3.6 °C -8.7 °C 34750.5 hPa North 20.9 km/h 20.9 km/h 57 % 0 mm 622.0 W/m2 CLR
14:21 -3.3 °C -8.5 °C 34750.5 hPa NNE 20.9 km/h 20.9 km/h 56 % 0 mm 617.0 W/m2 CLR
14:26 -3.3 °C -8.5 °C 34750.5 hPa NNE 20.9 km/h 20.9 km/h 56 % 0 mm 613.0 W/m2 CLR
14:31 -2.9 °C -8.2 °C 34750.5 hPa North 29.8 km/h 29.8 km/h 56 % 0 mm 610.0 W/m2 CLR
14:36 -2.9 °C -8.6 °C 34740.4 hPa NNE 25.9 km/h 25.9 km/h 54 % 0 mm 603.0 W/m2 CLR
14:41 -2.7 °C -8.3 °C 34740.4 hPa NE 29.8 km/h 29.8 km/h 54 % 0 mm 601.0 W/m2 CLR
14:46 -2.7 °C -8.3 °C 34740.4 hPa NNE 23.8 km/h 23.8 km/h 54 % 0 mm 596.0 W/m2 CLR
14:51 -2.9 °C -8.6 °C 34740.4 hPa NNW 20.9 km/h 20.9 km/h 54 % 0 mm 591.0 W/m2 CLR
14:56 -2.7 °C -8.3 °C 34740.4 hPa NE 29.8 km/h 29.8 km/h 54 % 0 mm 587.0 W/m2 CLR
15:01 -2.7 °C -8.1 °C 34740.4 hPa ENE 36.2 km/h 36.2 km/h 55 % 0 mm 582.0 W/m2 CLR
15:06 -2.7 °C -8.1 °C 34740.4 hPa NE 32.8 km/h 32.8 km/h 55 % 0 mm 575.0 W/m2 CLR
15:11 -2.7 °C -8.1 °C 34740.4 hPa NE 36.2 km/h 36.2 km/h 55 % 0 mm 570.0 W/m2 CLR
15:16 -2.9 °C -8.4 °C 34740.4 hPa NE 32.8 km/h 32.8 km/h 55 % 0 mm 561.0 W/m2 CLR
15:21 -2.9 °C -8.2 °C 34726.8 hPa NE 32.8 km/h 32.8 km/h 56 % 0 mm 554.0 W/m2 CLR
15:26 -2.9 °C -8.4 °C 34726.8 hPa NNE 25.9 km/h 25.9 km/h 55 % 0 mm 547.0 W/m2 CLR
15:31 -3.3 °C -8.5 °C 34726.8 hPa NE 29.8 km/h 29.8 km/h 56 % 0 mm 538.0 W/m2 CLR
15:36 -2.9 °C -8.2 °C 34726.8 hPa NNE 32.8 km/h 32.8 km/h 56 % 0 mm 529.0 W/m2 CLR
15:41 -3.3 °C -8.4 °C 34726.8 hPa NNE 44.7 km/h 44.7 km/h 57 % 0 mm 522.0 W/m2 CLR
15:46 -3.3 °C -8.2 °C 34740.4 hPa NE 31.1 km/h 31.1 km/h 58 % 0 mm 513.0 W/m2 CLR
15:51 -3.3 °C -8.4 °C 34726.8 hPa ENE 26.9 km/h 26.9 km/h 57 % 0 mm 504.0 W/m2 CLR
15:56 -2.9 °C -7.9 °C 34726.8 hPa NE 29.8 km/h 29.8 km/h 58 % 0 mm 494.0 W/m2 CLR
16:01 -3.3 °C -8.4 °C 34726.8 hPa ENE 38.8 km/h 38.8 km/h 57 % 0 mm 483.0 W/m2 CLR
16:06 -3.3 °C -8.2 °C 34726.8 hPa NE 36.2 km/h 36.2 km/h 58 % 0 mm 473.0 W/m2 CLR
16:11 -3.3 °C -8.1 °C 34726.8 hPa NE 38.8 km/h 38.8 km/h 59 % 0 mm 464.0 W/m2 CLR
16:16 -3.3 °C -8.1 °C 34726.8 hPa NE 38.8 km/h 38.8 km/h 59 % 0 mm 454.0 W/m2 CLR
16:21 -3.3 °C -8.1 °C 34726.8 hPa ENE 44.1 km/h 44.1 km/h 59 % 0 mm 441.0 W/m2 CLR
16:22 -3.3 °C -8.1 °C 34726.8 hPa East 44.7 km/h 44.7 km/h 59 % 0 mm 439.0 W/m2 CLR
16:27 -3.6 °C -8.5 °C 34726.8 hPa NE 41.7 km/h 41.7 km/h 58 % 0 mm 429.0 W/m2 CLR
16:32 -3.6 °C -8.2 °C 34726.8 hPa NNE 35.7 km/h 35.7 km/h 60 % 0 mm 417.0 W/m2 CLR
16:37 -3.6 °C -8.4 °C 34726.8 hPa NE 44.7 km/h 44.7 km/h 59 % 0 mm 403.0 W/m2 CLR
16:42 -3.9 °C -8.5 °C 34726.8 hPa NE 47.6 km/h 47.6 km/h 60 % 0 mm 390.0 W/m2 CLR
16:47 -3.6 °C -8.1 °C 34726.8 hPa ENE 33.6 km/h 33.6 km/h 61 % 0 mm 378.0 W/m2 CLR
16:52 -3.6 °C -8.1 °C 34726.8 hPa NE 44.7 km/h 44.7 km/h 61 % 0 mm 366.0 W/m2 CLR
16:53 -3.9 °C -8.4 °C 34726.8 hPa NE 38.8 km/h 38.8 km/h 61 % 0 mm 362.0 W/m2 CLR
16:58 -3.9 °C -8.2 °C 34726.8 hPa NE 50.7 km/h 50.7 km/h 62 % 0 mm 348.0 W/m2 CLR
17:01 -3.9 °C -8.2 °C 34726.8 hPa ENE 38.8 km/h 38.8 km/h 62 % 0 mm 341.0 W/m2 CLR
17:06 -3.9 °C -8.2 °C 34726.8 hPa ENE 35.7 km/h 35.7 km/h 62 % 0 mm 329.0 W/m2 CLR
17:11 -3.9 °C -8.2 °C 34726.8 hPa ENE 29.8 km/h 29.8 km/h 62 % 0 mm 315.0 W/m2 CLR
17:16 -3.9 °C -8.4 °C 34726.8 hPa NE 36.2 km/h 36.2 km/h 61 % 0 mm 301.0 W/m2 CLR
17:21 -3.9 °C -8.4 °C 34726.8 hPa ENE 23.8 km/h 23.8 km/h 61 % 0 mm 288.0 W/m2 CLR
17:26 -4.2 °C -8.7 °C 34726.8 hPa NE 29.8 km/h 29.8 km/h 61 % 0 mm 274.0 W/m2 CLR
17:31 -4.2 °C -8.5 °C 34726.8 hPa ENE 32.8 km/h 32.8 km/h 62 % 0 mm 257.0 W/m2 CLR
17:36 -4.2 °C -8.5 °C 34726.8 hPa NE 29.8 km/h 29.8 km/h 62 % 0 mm 239.0 W/m2 CLR
17:41 -4.2 °C -8.7 °C 34726.8 hPa ENE 35.7 km/h 35.7 km/h 61 % 0 mm 225.0 W/m2 CLR
17:46 -4.5 °C -8.8 °C 34726.8 hPa ENE 35.7 km/h 35.7 km/h 62 % 0 mm 209.0 W/m2 CLR
17:51 -4.5 °C -8.7 °C 34726.8 hPa NE 35.7 km/h 35.7 km/h 63 % 0 mm 195.0 W/m2 CLR
17:56 -4.5 °C -8.7 °C 34726.8 hPa ENE 41.7 km/h 41.7 km/h 63 % 0 mm 179.0 W/m2 CLR
18:01 -4.8 °C -8.9 °C 34726.8 hPa ENE 32.8 km/h 32.8 km/h 63 % 0 mm 162.0 W/m2 CLR
18:06 -4.8 °C -8.8 °C 34726.8 hPa NE 41.7 km/h 41.7 km/h 64 % 0 mm 144.0 W/m2 CLR
18:11 -4.8 °C -8.8 °C 34726.8 hPa NE 26.9 km/h 26.9 km/h 64 % 0 mm 130.0 W/m2 CLR
18:16 -4.8 °C -8.8 °C 34726.8 hPa NE 29.8 km/h 29.8 km/h 64 % 0 mm 114.0 W/m2 CLR
18:21 -5.1 °C -9.1 °C 34726.8 hPa ENE 29.8 km/h 29.8 km/h 64 % 0 mm 98.0 W/m2 CLR
18:26 -5.1 °C -9 °C 34726.8 hPa NE 26.9 km/h 26.9 km/h 65 % 0 mm 84.0 W/m2 CLR
18:27 -5.1 °C -9 °C 34726.8 hPa NE 23.8 km/h 23.8 km/h 65 % 0 mm 84.0 W/m2 FEW
18:32 -5.1 °C -9 °C 34726.8 hPa ENE 23.8 km/h 23.8 km/h 65 % 0 mm 63.0 W/m2 SCT
18:37 -5.4 °C -9.3 °C 34740.4 hPa NE 23.8 km/h 23.8 km/h 65 % 0 mm 49.0 W/m2 SCT
18:42 -5.4 °C -9.3 °C 34740.4 hPa NE 17.9 km/h 17.9 km/h 65 % 0 mm 46.0 W/m2 SCT
18:47 -5.4 °C -9.3 °C 34740.4 hPa NNE 20.9 km/h 20.9 km/h 65 % 0 mm 37.0 W/m2 BKN
18:52 -5.7 °C -9.4 °C 34740.4 hPa NE 12.9 km/h 12.9 km/h 66 % 0 mm 26.0 W/m2 BKN
18:57 -5.7 °C -9.3 °C 34740.4 hPa NE 15 km/h 15 km/h 67 % 0 mm 21.0 W/m2 BKN
19:02 -6.1 °C -9.4 °C 34740.4 hPa ENE 26.9 km/h 26.9 km/h 68 % 0 mm 18.0 W/m2 BKN
19:07 -6.1 °C -9.4 °C 34740.4 hPa NE 15 km/h 15 km/h 68 % 0 mm 12.0 W/m2 BKN
19:12 -6.1 °C -9.3 °C 34750.5 hPa NE 9 km/h 9 km/h 69 % 0 mm 11.0 W/m2 BKN
19:17 -6.3 °C -9.6 °C 34750.5 hPa NE 9 km/h 9 km/h 69 % 0 mm 5.0 W/m2 OVC
19:22 -6.7 °C -9.8 °C 34750.5 hPa NNE 9 km/h 9 km/h 70 % 0 mm 0.0 W/m2 OVC
19:27 -6.7 °C -9.8 °C 34750.5 hPa Calm     70 % 0 mm 0.0 W/m2 OVC
19:32 -7 °C -9.9 °C 34750.5 hPa NE 9 km/h   71 % 0 mm 0.0 W/m2 CLR
19:37 -7 °C -9.8 °C 34750.5 hPa NE 15 km/h 15 km/h 72 % 0 mm 0.0 W/m2 CLR
19:42 -7.3 °C -10.1 °C 34760.7 hPa Calm     73 % 0 mm 0.0 W/m2 CLR
19:47 -7.3 °C -9.9 °C 34760.7 hPa NE 11.9 km/h 11.9 km/h 74 % 0 mm 0.0 W/m2 CLR
19:52 -7.3 °C -9.9 °C 34760.7 hPa Calm     74 % 0 mm 0.0 W/m2 CLR
19:57 -7.3 °C -9.9 °C 34760.7 hPa Calm     74 % 0 mm 0.0 W/m2 CLR
20:02 -7.6 °C -10.1 °C 34760.7 hPa Calm     75 % 0 mm 0.0 W/m2 CLR
20:07 -7.6 °C -10.1 °C 34760.7 hPa Calm     75 % 0 mm 0.0 W/m2 CLR
20:12 -7.9 °C -10.3 °C 34760.7 hPa Calm     76 % 0 mm 0.0 W/m2 CLR
20:17 -7.9 °C -10.2 °C 34774.2 hPa Calm     77 % 0 mm 0.0 W/m2 CLR
20:22 -7.9 °C -10.2 °C 34774.2 hPa NE 17.9 km/h 17.9 km/h 77 % 0 mm 0.0 W/m2 CLR
20:27 -8.2 °C -10.4 °C 34774.2 hPa Calm     78 % 0 mm 0.0 W/m2 CLR
20:32 -8.2 °C -10.4 °C 34774.2 hPa Calm     78 % 0 mm 0.0 W/m2 CLR
20:37 -8.5 °C -10.7 °C 34774.2 hPa Calm     78 % 0 mm 0.0 W/m2 CLR
20:42 -8.5 °C -10.6 °C 34774.2 hPa Calm     79 % 0 mm 0.0 W/m2 CLR
20:47 -8.8 °C -10.9 °C 34774.2 hPa Calm     79 % 0 mm 0.0 W/m2 CLR
20:52 -8.8 °C -10.9 °C 34774.2 hPa Calm     79 % 0 mm 0.0 W/m2 CLR
20:57 -8.8 °C -10.7 °C 34774.2 hPa Calm     80 % 0 mm 0.0 W/m2 CLR
21:02 -8.8 °C -10.7 °C 34774.2 hPa Calm     80 % 0 mm 0.0 W/m2 CLR
21:07 -9.1 °C -11.1 °C 34774.2 hPa Calm     80 % 0 mm 0.0 W/m2 CLR
21:12 -9.1 °C -11.1 °C 34774.2 hPa Calm     80 % 0 mm 0.0 W/m2 CLR
21:17 -9.1 °C -11.1 °C 34774.2 hPa Calm     80 % 0 mm 0.0 W/m2 CLR
21:22 -9.1 °C -11.1 °C 34774.2 hPa Calm     80 % 0 mm 0.0 W/m2 CLR
21:27 -9.4 °C -11.2 °C 34774.2 hPa Calm     81 % 0 mm 0.0 W/m2 CLR
21:32 -9.4 °C -11.2 °C 34784.4 hPa Calm     81 % 0 mm 0.0 W/m2 CLR
21:33 -9.4 °C -11.2 °C 34784.4 hPa Calm     81 % 0 mm 0.0 W/m2 CLR
21:38 -9.4 °C -11.2 °C 34784.4 hPa Calm     81 % 0 mm 0.0 W/m2 CLR
21:43 -9.4 °C -11.2 °C 34784.4 hPa Calm     81 % 0 mm 0.0 W/m2 CLR
21:48 -9.8 °C -11.6 °C 34784.4 hPa Calm     81 % 0 mm 0.0 W/m2 CLR
21:53 -9.8 °C -11.6 °C 34784.4 hPa Calm     81 % 0 mm 0.0 W/m2 CLR
21:58 -9.8 °C -11.4 °C 34784.4 hPa Calm     82 % 0 mm 0.0 W/m2 CLR
22:03 -10.1 °C -11.7 °C 34784.4 hPa Calm     82 % 0 mm 0.0 W/m2 CLR
22:04 -10.1 °C -11.7 °C 34784.4 hPa Calm     82 % 0 mm 0.0 W/m2 CLR
22:10 -10.1 °C -11.7 °C 34784.4 hPa Calm     82 % 0 mm 0.0 W/m2 CLR
22:14 -10.1 °C -11.6 °C 34784.4 hPa Calm     83 % 0 mm 0.0 W/m2 CLR
22:20 -10.1 °C -11.6 °C 34784.4 hPa Calm     83 % 0 mm 0.0 W/m2 CLR
22:25 -10.4 °C -11.9 °C 34784.4 hPa Calm     83 % 0 mm 0.0 W/m2 CLR
22:30 -10.4 °C -11.9 °C 34784.4 hPa Calm     83 % 0 mm 0.0 W/m2 CLR
22:35 -10.4 °C -11.8 °C 34784.4 hPa Calm     84 % 0 mm 0.0 W/m2 CLR
22:40 -10.4 °C -11.8 °C 34784.4 hPa Calm     84 % 0 mm 0.0 W/m2 CLR
22:45 -10.4 °C -11.8 °C 34784.4 hPa Calm     84 % 0 mm 0.0 W/m2 CLR
22:50 -10.4 °C -11.8 °C 34784.4 hPa Calm     84 % 0 mm 0.0 W/m2 CLR
22:55 -10.4 °C -11.8 °C 34784.4 hPa Calm     84 % 0 mm 0.0 W/m2 CLR
23:00 -10.4 °C -11.7 °C 34797.9 hPa Calm     85 % 0 mm 0.0 W/m2 CLR
23:05 -10.4 °C -11.7 °C 34797.9 hPa Calm     85 % 0 mm 0.0 W/m2 CLR
23:10 -10.4 °C -11.8 °C 34797.9 hPa Calm     84 % 0 mm 0.0 W/m2 CLR
23:15 -10.4 °C -11.9 °C 34797.9 hPa Calm     83 % 0 mm 0.0 W/m2 CLR
23:20 -10.4 °C -11.9 °C 34797.9 hPa Calm     83 % 0 mm 0.0 W/m2 CLR
23:25 -10.1 °C -11.6 °C 34797.9 hPa Calm     83 % 0 mm 0.0 W/m2 CLR
23:30 -10.1 °C -11.6 °C 34797.9 hPa Calm     84 % 0 mm 0.0 W/m2 CLR
23:31 -10.1 °C -11.6 °C 34797.9 hPa Calm     84 % 0 mm 0.0 W/m2 CLR
23:36 -10.4 °C -11.7 °C 34797.9 hPa Calm     85 % 0 mm 0.0 W/m2 CLR
23:41 -10.4 °C -11.8 °C 34797.9 hPa Calm     84 % 0 mm 0.0 W/m2 CLR
23:46 -10.4 °C -11.8 °C 34797.9 hPa Calm     84 % 0 mm 0.0 W/m2 CLR
23:51 -10.4 °C -11.8 °C 34797.9 hPa Calm     84 % 0 mm 0.0 W/m2 CLR
23:56 -10.1 °C -11.4 °C 34797.9 hPa Calm     85 % 0 mm 0.0 W/m2 CLR
Lo Temps de Massalio
Compliments of Weather Underground - 1.25 mb